CheckWX is a tool to help pilots better visualize weather data.  It is not intended as a substitute for an official pre-flight weather briefing.

15:04:52 UTC

LSMM METAR
Meiringen Airport
Switzerland
Current

15 mins ago

LSMM 221450Z AUTO 29005KT 240V340 9999NDV FEW200 05/02 Q1003 RMK
Observed
Nov-22 @ 14:50 UTC
Wind
  • 290° at 5 KTS
Visibility
Cloud Levels
  • Few at 20,000' AGL
Temperature
C / 41°F
Dewpoint
C / 36°F
Humidity
81%
Altimeter
29.62" Hg
Pressure
1002.92 hPa
Previous

45 mins ago

LSMM 221420Z AUTO 26007KT 230V310 9999NDV FEW200 04/02 Q1004 RMK
Observed
Nov-22 @ 14:20 UTC
Wind
  • 260° at 7 KTS
Visibility
Cloud Levels
  • Few at 20,000' AGL
Temperature
C / 39°F
Dewpoint
C / 36°F
Humidity
87%
Altimeter
29.65" Hg
Pressure
1003.92 hPa
Previous

1 hour ago

LSMM 221350Z AUTO 24008KT 9999NDV NCD 05/02 Q1004 RMK
Observed
Nov-22 @ 13:50 UTC
Wind
  • 240° at 8 KTS
Visibility
Cloud Levels
  • Clear skies
Temperature
C / 41°F
Dewpoint
C / 36°F
Humidity
81%
Altimeter
29.65" Hg
Pressure
1003.92 hPa